Time;durP1;ratioP1;P1;durP2;ratioP2;P2;SDS_P1;SDS_P2;PMS_P1;PMS_P2;Temp;Humidity;BMP_temperature;BMP_pressure;BME280_temperature;BME280_humidity;BME280_pressure;Samples;Min_cycle;Max_cycle;Signal;HPM_P1;HPM_P2
2022/10/07 00:00:31;;;;;;;87.55;10.32;;;;;;;10.75;100.00;101437.06;10330297;28;20177;-72
2022/10/07 00:05:31;;;;;;;165.45;11.90;;;;;;;10.71;100.00;101422.41;10330882;28;20449;-72
2022/10/07 00:10:37;;;;;;;123.78;10.25;;;;;;;10.95;100.00;101446.69;10330946;28;20069;-72
2022/10/07 00:15:38;;;;;;;146.48;8.40;;;;;;;10.60;100.00;101390.66;10330199;28;20053;-72
2022/10/07 00:20:39;;;;;;;129.90;8.55;;;;;;;10.63;100.00;101383.25;10334581;28;20042;-72
2022/10/07 00:25:40;;;;;;;52.13;9.68;;;;;;;11.14;100.00;101461.75;10337798;28;20042;-72
2022/10/07 00:30:41;;;;;;;178.90;10.95;;;;;;;10.95;100.00;101429.91;10337627;28;20528;-72
2022/10/07 00:35:41;;;;;;;53.78;9.10;;;;;;;10.22;100.00;101305.53;10338012;28;20039;-72
2022/10/07 00:40:42;;;;;;;45.17;7.15;;;;;;;11.15;100.00;101441.31;10336971;28;20391;-72
2022/10/07 00:45:43;;;;;;;66.82;8.70;;;;;;;11.36;100.00;101467.69;10336609;28;20057;-72
2022/10/07 00:50:46;;;;;;;23.92;7.32;;;;;;;11.38;100.00;101457.75;10335628;28;20301;-72
2022/10/07 00:55:47;;;;;;;14.80;7.35;;;;;;;11.54;100.00;101473.09;10336071;28;20058;-71
2022/10/07 01:00:48;;;;;;;21.42;8.95;;;;;;;11.45;100.00;101452.69;10336314;28;20046;-72
2022/10/07 01:05:49;;;;;;;18.23;9.90;;;;;;;11.62;100.00;101466.06;10336337;28;20042;-72
2022/10/07 01:10:53;;;;;;;56.72;13.15;;;;;;;11.75;100.00;101486.16;10336092;28;20125;-72
2022/10/07 01:16:07;;;;;;;65.90;16.57;;;;;;;11.25;100.00;101391.59;10336067;28;20544;-72
2022/10/07 01:21:40;;;;;;;39.90;15.32;;;;;;;11.86;100.00;101476.19;10329287;28;20043;-72
2022/10/07 01:26:47;;;;;;;;;;;;;;;11.99;100.00;101481.16;10297529;28;20483;-72
2022/10/07 01:32:23;;;;;;;89.63;17.42;;;;;;;11.93;100.00;101480.91;10294273;28;19917;-72
2022/10/07 01:37:28;;;;;;;48.22;14.55;;;;;;;11.90;100.00;101481.22;10294359;28;20046;-72
2022/10/07 01:42:30;;;;;;;33.38;16.30;;;;;;;11.36;100.00;101393.22;10294178;28;20458;-72
2022/10/07 01:47:32;;;;;;;28.85;15.85;;;;;;;11.86;100.00;101492.16;10294596;28;20043;-72
2022/10/07 01:52:39;;;;;;;26.08;16.10;;;;;;;11.50;100.00;101423.81;10293940;28;20038;-72
2022/10/07 01:57:58;;;;;;;32.60;16.67;;;;;;;11.75;100.00;101472.84;10294044;28;20125;-72
2022/10/07 02:03:05;;;;;;;25.75;16.58;;;;;;;11.85;100.00;101487.84;10293806;28;20082;-72
2022/10/07 02:08:47;;;;;;;30.08;17.67;;;;;;;12.03;100.00;101509.19;10302766;28;20154;-72
2022/10/07 02:14:13;;;;;;;27.70;16.73;;;;;;;11.71;100.00;101445.69;10288686;28;20038;-72
2022/10/07 02:19:28;;;;;;;26.17;16.63;;;;;;;12.00;100.00;101487.34;10292676;28;20058;-72
2022/10/07 02:24:33;;;;;;;26.85;15.50;;;;;;;11.97;100.00;101487.63;10293661;28;20039;-72
2022/10/07 02:29:37;;;;;;;22.95;15.88;;;;;;;12.10;100.00;101498.75;10292259;28;20062;-72
2022/10/07 02:34:42;;;;;;;27.93;17.80;;;;;;;12.01;100.00;101492.50;10306635;28;20038;-71
2022/10/07 02:39:45;;;;;;;27.33;16.63;;;;;;;12.07;100.00;101505.22;10347364;28;20410;-72
2022/10/07 02:44:48;;;;;;;26.25;17.17;;;;;;;11.82;100.00;101469.47;10331982;28;20120;-72
2022/10/07 02:49:52;;;;;;;24.98;16.55;;;;;;;11.58;100.00;101419.44;10332360;28;20050;-72
2022/10/07 02:54:59;;;;;;;31.75;16.52;;;;;;;12.14;100.00;101513.44;10331578;28;20073;-72
2022/10/07 03:00:01;;;;;;;26.42;16.58;;;;;;;11.59;100.00;101418.44;10332161;28;20045;-72
2022/10/07 03:05:02;;;;;;;32.17;16.63;;;;;;;12.13;100.00;101498.47;10325699;28;20105;-72
2022/10/07 03:10:06;;;;;;;35.05;17.13;;;;;;;12.18;100.00;101503.34;10331461;28;20050;-72
2022/10/07 03:15:10;;;;;;;37.38;16.58;;;;;;;12.21;100.00;101505.72;10325522;28;20047;-72
2022/10/07 03:20:12;;;;;;;29.02;16.05;;;;;;;12.02;100.00;101464.03;10291015;28;20074;-72
2022/10/07 03:25:14;;;;;;;28.50;13.30;;;;;;;12.07;100.00;101480.41;10291107;28;20061;-72
2022/10/07 03:30:14;;;;;;;22.75;14.88;;;;;;;12.04;100.00;101470.91;10289978;28;20058;-72
2022/10/07 03:35:15;;;;;;;27.15;14.75;;;;;;;12.29;100.00;101509.31;10291291;28;20399;-72
2022/10/07 03:40:17;;;;;;;28.15;14.88;;;;;;;12.40;100.00;101513.56;10323081;28;20042;-72
2022/10/07 03:45:19;;;;;;;27.40;20.92;;;;;;;11.93;100.00;101430.31;10331439;28;20097;-72
2022/10/07 03:50:20;;;;;;;23.65;13.98;;;;;;;12.29;100.00;101509.31;10331258;28;20082;-73
2022/10/07 03:55:21;;;;;;;17.88;11.00;;;;;;;12.46;100.00;101522.78;10337228;28;20066;-72
2022/10/07 04:00:23;;;;;;;25.17;12.13;;;;;;;12.58;100.00;101518.91;10338339;28;20074;-72
2022/10/07 04:05:24;;;;;;;21.30;10.35;;;;;;;12.21;100.00;101455.94;10338212;28;20046;-73
2022/10/07 04:10:25;;;;;;;14.88;9.63;;;;;;;12.49;100.00;101494.00;10335939;28;20064;-72
2022/10/07 04:15:26;;;;;;;16.83;9.82;;;;;;;12.66;100.00;101516.31;10337067;28;20227;-72
2022/10/07 04:20:27;;;;;;;17.58;10.07;;;;;;;12.79;100.00;101514.09;10317268;28;20058;-74
2022/10/07 04:25:33;;;;;;;17.60;9.10;;;;;;;12.39;100.00;101423.13;10297575;28;20518;-71
2022/10/07 04:30:39;;;;;;;16.73;7.82;;;;;;;13.14;100.00;101517.69;10296379;28;20050;-72
2022/10/07 04:35:40;;;;;;;17.30;7.93;;;;;;;13.14;100.00;101506.19;10296803;28;20043;-71
2022/10/07 04:40:44;;;;;;;15.73;7.35;;;;;;;13.39;100.00;101523.22;10295850;28;20041;-71
2022/10/07 04:45:50;;;;;;;16.33;7.13;;;;;;;13.15;100.00;101447.34;10296401;28;20121;-73
2022/10/07 04:50:51;;;;;;;12.88;6.55;;;;;;;13.55;100.00;101445.91;10319811;28;20383;-72
2022/10/07 04:55:52;;;;;;;14.73;5.78;;;;;;;13.82;100.00;101438.63;10336861;28;20046;-72
2022/10/07 05:00:53;;;;;;;12.13;5.95;;;;;;;14.39;98.95;101521.63;10336608;28;20034;-72
2022/10/07 05:06:00;;;;;;;11.77;4.97;;;;;;;14.59;96.03;101516.84;10336117;28;20081;-72
2022/10/07 05:11:02;;;;;;;6.78;3.70;;;;;;;14.39;92.52;101462.81;10335568;28;20103;-72
2022/10/07 05:16:03;;;;;;;8.05;4.05;;;;;;;14.96;91.67;101520.88;10336090;28;20070;-72
2022/10/07 05:21:08;;;;;;;10.45;3.45;;;;;;;15.15;85.40;101517.00;10336010;28;20046;-74
2022/10/07 05:26:09;;;;;;;5.45;2.92;;;;;;;15.19;85.68;101521.84;10335307;28;20038;-72
2022/10/07 05:31:12;;;;;;;4.38;2.60;;;;;;;15.32;83.97;101526.69;10335248;28;20046;-73
2022/10/07 05:36:13;;;;;;;4.05;2.75;;;;;;;15.35;84.54;101488.03;10334741;28;20109;-73
2022/10/07 05:41:14;;;;;;;7.10;3.20;;;;;;;15.25;83.29;101434.66;10334559;28;20046;-76
2022/10/07 05:46:19;;;;;;;8.38;2.72;;;;;;;15.89;79.82;101509.63;10334332;28;20061;-73
2022/10/07 05:51:22;;;;;;;6.78;2.47;;;;;;;15.58;78.85;101431.88;10334516;28;20120;-74
2022/10/07 05:56:23;;;;;;;7.78;2.80;;;;;;;16.17;78.58;101509.97;10334318;28;20498;-74
2022/10/07 06:01:25;;;;;;;4.65;2.70;;;;;;;16.03;76.30;101443.72;10333700;28;20044;-74
2022/10/07 06:06:28;;;;;;;8.57;2.80;;;;;;;16.59;76.14;101489.94;10333542;28;20581;-75
2022/10/07 06:17:05;;;;;;;5.10;2.63;;;;;;;16.92;73.98;101485.16;10305973;28;20066;-76
2022/10/07 06:22:06;;;;;;;13.57;2.90;;;;;;;16.83;73.05;101462.09;10333487;28;20042;-74
2022/10/07 06:27:07;;;;;;;8.07;2.80;;;;;;;16.80;72.29;101404.25;10333594;28;20038;-75
2022/10/07 06:32:08;;;;;;;5.20;2.65;;;;;;;17.39;71.71;101477.81;10333580;28;20046;-73
2022/10/07 06:37:08;;;;;;;6.15;2.58;;;;;;;17.64;71.05;101470.28;10332379;28;20038;-74
2022/10/07 06:42:09;;;;;;;6.38;2.60;;;;;;;17.85;69.85;101474.91;10332774;28;20042;-73
2022/10/07 06:47:10;;;;;;;5.60;2.65;;;;;;;17.82;68.75;101469.91;10332640;28;20038;-74
2022/10/07 06:52:11;;;;;;;5.30;2.58;;;;;;;17.69;67.70;101444.53;10332601;28;20050;-74
2022/10/07 06:57:11;;;;;;;4.22;2.65;;;;;;;17.96;67.47;101463.69;10332228;28;20490;-76
2022/10/07 07:02:12;;;;;;;8.80;3.15;;;;;;;18.19;68.49;101460.84;10331502;28;20498;-74
2022/10/07 07:07:13;;;;;;;5.45;2.65;;;;;;;18.43;67.58;101454.25;10331440;28;20125;-73
2022/10/07 07:12:14;;;;;;;3.95;2.53;;;;;;;18.53;67.17;101435.91;10332612;28;20081;-73
2022/10/07 07:17:15;;;;;;;5.38;2.70;;;;;;;18.69;66.41;101445.56;10332466;28;20414;-74
2022/10/07 07:22:15;;;;;;;12.70;2.90;;;;;;;18.94;65.98;101429.84;10331178;28;20046;-74
2022/10/07 07:27:16;;;;;;;5.63;2.65;;;;;;;19.19;64.86;101437.47;10332504;28;20045;-73
2022/10/07 07:32:17;;;;;;;21.35;3.72;;;;;;;19.35;64.79;101437.13;10338476;28;20042;-76
2022/10/07 07:37:18;;;;;;;10.95;2.92;;;;;;;19.34;63.51;101422.00;10339138;28;20042;-73
2022/10/07 07:42:20;;;;;;;3.58;2.45;;;;;;;19.37;63.11;101405.44;10339713;28;20429;-73
2022/10/07 07:47:21;;;;;;;7.85;2.78;;;;;;;19.52;62.15;101408.81;10338985;28;20046;-73
2022/10/07 07:52:24;;;;;;;10.35;2.50;;;;;;;19.68;62.04;101396.03;10339438;28;20042;-74
2022/10/07 07:57:26;;;;;;;13.18;2.65;;;;;;;19.75;60.75;101408.53;10338987;28;20125;-76
2022/10/07 08:02:27;;;;;;;6.28;2.55;;;;;;;19.28;60.74;101332.03;10338800;28;20402;-74
2022/10/07 08:07:28;;;;;;;12.82;2.70;;;;;;;19.67;61.20;101373.66;10338229;28;20038;-75
2022/10/07 08:12:31;;;;;;;4.10;2.70;;;;;;;19.90;60.81;101394.06;10337788;28;20066;-73
2022/10/07 08:17:32;;;;;;;9.82;2.67;;;;;;;20.06;61.17;101380.16;10338111;28;20129;-73
2022/10/07 08:22:32;;;;;;;5.15;2.58;;;;;;;20.04;60.42;101358.81;10337507;28;20137;-75
2022/10/07 08:27:33;;;;;;;9.95;2.85;;;;;;;20.24;60.37;101347.19;10337260;28;20122;-75
2022/10/07 08:32:34;;;;;;;5.00;2.47;;;;;;;20.30;59.73;101341.78;10337635;28;20521;-75
2022/10/07 08:37:35;;;;;;;5.70;2.45;;;;;;;20.25;59.67;101322.72;10337957;28;20042;-78
2022/10/07 08:42:39;;;;;;;5.07;2.53;;;;;;;20.39;58.32;101328.91;10335680;28;20418;-73
2022/10/07 08:47:46;;;;;;;6.03;2.83;;;;;;;20.71;57.29;101345.31;10337145;28;20450;-75
2022/10/07 08:53:07;;;;;;;15.32;3.20;;;;;;;20.93;58.05;101354.81;10336935;28;20054;-74
2022/10/07 08:58:14;;;;;;;6.30;2.58;;;;;;;20.85;55.87;101348.81;10336777;28;20096;-73
2022/10/07 09:03:33;;;;;;;5.03;2.30;;;;;;;20.80;55.79;101344.06;10336578;28;20125;-76
2022/10/07 09:08:39;;;;;;;15.05;2.80;;;;;;;20.80;57.95;101327.84;10336507;28;20061;-75
2022/10/07 09:13:45;;;;;;;7.40;2.83;;;;;;;20.96;56.47;101330.06;10336276;28;20140;-76
2022/10/07 09:18:59;;;;;;;19.25;3.20;;;;;;;20.91;55.78;101335.31;10335674;28;20097;-76
2022/10/07 09:24:24;;;;;;;5.78;2.97;;;;;;;20.83;56.75;101310.41;10336056;28;20042;-75
2022/10/07 09:29:29;;;;;;;4.32;2.58;;;;;;;21.04;55.84;101312.81;10335084;28;20121;-76
2022/10/07 09:34:31;;;;;;;14.00;3.13;;;;;;;21.17;57.56;101311.94;10335520;28;20042;-75
2022/10/07 09:39:31;;;;;;;6.35;2.72;;;;;;;20.83;57.28;101242.88;10335837;28;20085;-75
2022/10/07 09:44:32;;;;;;;5.55;2.17;;;;;;;21.11;56.15;101292.00;10335020;28;20062;-79
2022/10/07 09:49:42;;;;;;;9.15;2.67;;;;;;;20.79;55.82;101231.69;10334231;28;20046;-79
2022/10/07 09:54:48;;;;;;;5.68;2.50;;;;;;;20.81;56.15;101244.97;10335126;28;20137;-76
2022/10/07 09:59:49;;;;;;;7.93;2.60;;;;;;;20.82;56.43;101246.63;10334480;28;20053;-75
2022/10/07 10:04:53;;;;;;;9.27;3.20;;;;;;;21.07;56.71;101271.88;10335021;28;20050;-77
2022/10/07 10:10:11;;;;;;;3.88;2.10;;;;;;;21.24;55.82;101261.41;10333714;28;20132;-75
2022/10/07 10:15:36;;;;;;;5.05;2.25;;;;;;;21.29;52.79;101258.84;10333252;28;20133;-76
2022/10/07 10:20:42;;;;;;;3.17;2.00;;;;;;;21.15;55.00;101250.00;10333358;28;20042;-75
2022/10/07 10:26:26;;;;;;;8.95;2.30;;;;;;;21.39;53.90;101247.63;10333430;28;20034;-76
2022/10/07 10:32:00;;;;;;;5.18;2.40;;;;;;;21.29;52.68;101242.66;10332609;28;20046;-76
2022/10/07 10:37:07;;;;;;;7.50;2.10;;;;;;;21.16;54.99;101215.72;10332455;28;20041;-75
2022/10/07 10:42:14;;;;;;;6.90;2.30;;;;;;;20.85;54.69;101162.47;10332986;28;20046;-76
2022/10/07 10:47:31;;;;;;;3.47;1.90;;;;;;;20.83;52.82;101145.66;10332227;28;20052;-76
2022/10/07 10:53:00;;;;;;;4.47;1.80;;;;;;;21.43;54.15;101224.50;10332448;28;20454;-76
2022/10/07 10:58:34;;;;;;;8.50;2.45;;;;;;;21.08;53.35;101213.25;10331028;28;20047;-76
2022/10/07 11:03:57;;;;;;;8.30;2.15;;;;;;;21.20;54.05;101222.34;10331039;28;20046;-78
2022/10/07 11:09:00;;;;;;;3.63;2.13;;;;;;;21.09;54.83;101187.88;10332624;28;20066;-77
2022/10/07 11:14:11;;;;;;;5.05;2.20;;;;;;;21.18;54.89;101210.94;10331471;28;20046;-76
2022/10/07 11:19:27;;;;;;;7.43;2.53;;;;;;;21.08;52.98;101210.56;10331299;28;20038;-76
2022/10/07 11:24:50;;;;;;;8.13;2.25;;;;;;;21.11;54.74;101213.66;10331216;28;20237;-76
2022/10/07 11:29:51;;;;;;;6.00;2.28;;;;;;;21.06;55.18;101204.53;10330906;28;20049;-79
2022/10/07 11:35:00;;;;;;;7.95;2.17;;;;;;;21.03;55.08;101207.66;10331503;28;20117;-76
2022/10/07 11:40:06;;;;;;;4.60;1.65;;;;;;;20.59;54.54;101147.25;10331600;28;20053;-77
2022/10/07 11:45:15;;;;;;;8.73;2.20;;;;;;;20.94;55.20;101210.63;10330876;28;20034;-75
2022/10/07 11:50:21;;;;;;;6.43;2.00;;;;;;;20.94;54.40;101202.53;10330764;28;20080;-79
2022/10/07 11:55:27;;;;;;;12.25;2.35;;;;;;;20.89;54.73;101201.53;10330884;28;20039;-76
2022/10/07 12:00:34;;;;;;;3.38;1.95;;;;;;;20.59;53.64;101161.56;10331089;28;20042;-76
2022/10/07 12:05:35;;;;;;;3.63;2.10;;;;;;;20.84;54.88;101195.94;10331110;28;20084;-75
2022/10/07 12:10:36;;;;;;;6.60;2.00;;;;;;;20.75;54.77;101192.63;10330776;28;20060;-77
2022/10/07 12:15:43;;;;;;;6.93;1.70;;;;;;;20.70;54.65;101203.25;10326372;28;20042;-76
2022/10/07 12:20:45;;;;;;;5.00;1.73;;;;;;;20.60;55.23;101192.91;10313601;28;20566;-74
2022/10/07 12:25:58;;;;;;;4.57;2.00;;;;;;;20.64;55.35;101190.59;10297897;28;20054;-77
2022/10/07 12:31:13;;;;;;;3.38;1.85;;;;;;;20.52;54.98;101179.63;10297424;28;20472;-75
2022/10/07 12:36:17;;;;;;;4.65;1.80;;;;;;;20.50;55.83;101182.53;10297493;28;20137;-83
2022/10/07 12:41:45;;;;;;;7.15;1.98;;;;;;;20.41;55.97;101175.72;10296654;28;20174;-75
2022/10/07 12:46:49;;;;;;;24.20;3.08;;;;;;;20.42;56.68;101176.53;10296414;28;20558;-74
2022/10/07 12:51:53;;;;;;;6.88;1.80;;;;;;;20.27;56.07;101158.72;10296372;28;20042;-75
2022/10/07 12:56:54;;;;;;;7.25;2.15;;;;;;;20.28;56.67;101175.75;10295944;28;20050;-75
2022/10/07 13:02:34;;;;;;;7.80;1.70;;;;;;;20.25;56.38;101173.47;10296239;28;20035;-75
2022/10/07 13:07:53;;;;;;;6.40;1.90;;;;;;;20.14;56.78;101184.94;10306435;28;20051;-74
2022/10/07 13:13:06;;;;;;;4.15;1.45;;;;;;;19.93;57.23;101167.13;10319987;28;20169;-75
2022/10/07 13:18:39;;;;;;;7.85;1.90;;;;;;;19.94;57.70;101176.88;10304518;28;20047;-75
2022/10/07 13:23:49;;;;;;;8.30;1.65;;;;;;;19.18;57.79;101059.56;10297987;28;20089;-74
2022/10/07 13:28:59;;;;;;;9.70;1.80;;;;;;;19.70;57.99;101167.56;10300595;28;20533;-75
2022/10/07 13:34:14;;;;;;;12.93;2.10;;;;;;;19.52;58.92;101144.72;10313283;28;20046;-77
2022/10/07 13:39:15;;;;;;;5.60;1.92;;;;;;;19.46;58.29;101161.72;10326271;28;20048;-74
2022/10/07 13:44:19;;;;;;;14.63;2.47;;;;;;;18.93;58.86;101094.31;10329017;28;20624;-74
2022/10/07 13:49:29;;;;;;;5.78;1.70;;;;;;;19.08;59.33;101139.91;10330047;28;20093;-76
2022/10/07 13:54:32;;;;;;;14.32;2.28;;;;;;;19.03;59.72;101155.88;10333477;28;20046;-75
2022/10/07 13:59:35;;;;;;;15.45;2.10;;;;;;;18.99;61.16;101170.75;10335334;28;20132;-73
2022/10/07 14:04:55;;;;;;;7.95;1.90;;;;;;;18.82;65.83;101179.22;10333687;28;20038;-73
2022/10/07 14:09:58;;;;;;;6.53;1.70;;;;;;;18.58;68.15;101179.72;10332906;28;20073;-73
2022/10/07 14:15:16;;;;;;;7.32;1.88;;;;;;;18.35;70.43;101174.63;10311539;28;20047;-73
2022/10/07 14:20:24;;;;;;;5.00;1.80;;;;;;;17.98;72.33;101153.31;10294034;28;20419;-74
2022/10/07 14:25:27;;;;;;;6.00;2.13;;;;;;;17.50;73.07;101101.22;10302784;28;20109;-74
2022/10/07 14:35:16;;;;;;;11.90;2.47;;;;;;;17.37;75.48;101122.63;10305446;28;20046;-73
2022/10/07 14:36:15;;;;;;;30.02;3.65;;;;;;;17.46;80.65;101176.00;10325039;28;20034;-73
2022/10/07 14:41:20;;;;;;;50.45;4.68;;;;;;;17.22;80.54;101185.28;10320494;28;20042;-73
2022/10/07 14:46:24;;;;;;;40.00;4.45;;;;;;;16.83;81.72;101183.84;10321432;28;20192;-73
2022/10/07 14:51:28;;;;;;;9.30;3.03;;;;;;;16.48;82.66;101152.41;10326831;28;20034;-73
2022/10/07 14:56:31;;;;;;;34.83;4.45;;;;;;;16.28;84.55;101170.94;10313129;28;20125;-73
2022/10/07 15:01:32;;;;;;;26.03;3.77;;;;;;;16.13;84.35;101181.66;10318050;28;20469;-73
2022/10/07 15:06:33;;;;;;;33.97;4.90;;;;;;;15.25;85.56;101065.28;10310978;28;20527;-72
2022/10/07 15:11:34;;;;;;;31.40;4.60;;;;;;;15.80;86.39;101184.66;10303671;28;20578;-72
2022/10/07 15:16:35;;;;;;;28.02;4.90;;;;;;;15.78;87.71;101213.47;10295854;28;20069;-72
2022/10/07 15:21:36;;;;;;;22.77;6.97;;;;;;;15.19;89.39;101148.97;10308066;28;20030;-72
2022/10/07 15:26:37;;;;;;;37.33;10.80;;;;;;;15.34;91.28;101187.34;10297222;28;20521;-72
2022/10/07 15:31:38;;;;;;;19.17;7.78;;;;;;;15.22;92.13;101194.13;10303086;28;20038;-72
2022/10/07 15:36:39;;;;;;;22.48;7.45;;;;;;;15.11;93.07;101197.22;10297089;28;20050;-72
2022/10/07 15:41:41;;;;;;;36.72;7.75;;;;;;;15.21;94.68;101221.91;10309338;28;20101;-72
2022/10/07 15:46:44;;;;;;;19.52;6.90;;;;;;;15.21;94.52;101208.50;10290591;28;20039;-72
2022/10/07 15:51:45;;;;;;;20.95;6.32;;;;;;;15.29;94.44;101225.34;10297504;28;20558;-72
2022/10/07 15:56:49;;;;;;;24.15;6.00;;;;;;;15.40;94.96;101229.44;10309564;28;20491;-72
2022/10/07 16:01:51;;;;;;;16.33;6.18;;;;;;;15.50;95.47;101238.09;10299359;28;20089;-73
2022/10/07 16:06:52;;;;;;;19.05;5.85;;;;;;;15.53;96.19;101243.09;10309065;28;20043;-72
2022/10/07 16:11:53;;;;;;;14.45;8.48;;;;;;;14.94;96.57;101145.63;10303187;28;20085;-72
2022/10/07 16:16:53;;;;;;;30.58;16.10;;;;;;;15.48;97.34;101244.63;10314820;28;20050;-72
2022/10/07 16:21:54;;;;;;;25.85;10.82;;;;;;;15.26;97.97;101222.22;10297514;28;20043;-72
2022/10/07 16:26:56;;;;;;;26.15;10.07;;;;;;;14.81;98.74;101156.94;10297830;28;20502;-72
2022/10/07 16:31:57;;;;;;;27.10;8.30;;;;;;;14.96;99.11;101207.84;10308407;28;20089;-72
2022/10/07 16:36:58;;;;;;;24.92;8.13;;;;;;;15.00;99.51;101231.38;10296849;28;20071;-72
2022/10/07 16:41:58;;;;;;;24.05;7.00;;;;;;;14.42;99.66;101157.75;10308673;28;20043;-72
2022/10/07 16:47:00;;;;;;;28.88;9.55;;;;;;;14.24;100.00;101141.94;10296784;28;20062;-72
2022/10/07 16:52:00;;;;;;;60.33;9.38;;;;;;;14.60;100.00;101219.84;10306731;28;20495;-72
2022/10/07 16:57:01;;;;;;;17.27;7.57;;;;;;;14.58;100.00;101231.72;10296690;28;20042;-72
2022/10/07 17:02:03;;;;;;;22.85;8.90;;;;;;;14.24;100.00;101202.53;10295554;28;20459;-72
2022/10/07 17:07:04;;;;;;;19.02;7.38;;;;;;;14.29;100.00;101238.44;10307377;28;20058;-74
2022/10/07 17:12:05;;;;;;;27.33;7.65;;;;;;;14.12;100.00;101228.81;10296777;28;20070;-73
2022/10/07 17:17:07;;;;;;;28.92;7.65;;;;;;;14.08;100.00;101247.00;10306426;28;20093;-72
2022/10/07 17:22:08;;;;;;;45.42;8.15;;;;;;;13.09;100.00;101093.16;10295830;28;20101;-72
2022/10/07 17:27:10;;;;;;;35.38;9.23;;;;;;;13.91;100.00;101245.38;10295093;28;20042;-72
2022/10/07 17:32:11;;;;;;;25.35;9.25;;;;;;;13.62;100.00;101213.81;10295274;28;20496;-72
2022/10/07 17:37:12;;;;;;;54.88;9.48;;;;;;;13.74;100.00;101239.19;10295046;28;20039;-72
2022/10/07 17:42:13;;;;;;;26.48;9.32;;;;;;;13.56;100.00;101220.66;10295040;28;20049;-72
2022/10/07 17:47:13;;;;;;;32.28;10.70;;;;;;;13.67;100.00;101239.03;10294179;28;20049;-72
2022/10/07 17:52:14;;;;;;;57.78;11.50;;;;;;;13.49;100.00;101211.66;10294216;28;20054;-72
2022/10/07 17:57:15;;;;;;;34.85;10.77;;;;;;;12.58;100.00;101065.78;10293712;28;20138;-72
2022/10/07 18:02:16;;;;;;;21.00;10.20;;;;;;;13.52;100.00;101231.81;10294622;28;20047;-72
2022/10/07 18:07:17;;;;;;;36.97;13.07;;;;;;;13.28;100.00;101198.75;10294642;28;20531;-72
2022/10/07 18:17:37;;;;;;;45.50;19.23;;;;;;;13.10;100.00;101190.88;10293567;28;20042;-73
2022/10/07 18:22:38;;;;;;;36.42;18.30;;;;;;;13.14;100.00;101221.56;10292909;28;20502;-72
2022/10/07 18:27:39;;;;;;;33.78;16.88;;;;;;;13.12;100.00;101228.88;10293354;28;20073;-73
2022/10/07 18:32:40;;;;;;;29.58;16.75;;;;;;;12.89;100.00;101212.69;10293030;28;20047;-73
2022/10/07 18:37:41;;;;;;;29.10;15.63;;;;;;;12.94;100.00;101221.00;10292395;28;20134;-73
2022/10/07 18:42:42;;;;;;;25.88;12.80;;;;;;;12.04;100.00;101087.41;10293328;28;20046;-73
2022/10/07 18:47:42;;;;;;;22.83;12.25;;;;;;;12.39;100.00;101138.00;10291225;28;20038;-73
2022/10/07 18:52:43;;;;;;;14.93;9.40;;;;;;;12.77;100.00;101193.47;10291642;28;20051;-73
2022/10/07 18:57:44;;;;;;;10.57;6.70;;;;;;;12.71;100.00;101159.47;10326691;28;20042;-74
2022/10/07 19:02:49;;;;;;;10.88;6.25;;;;;;;13.23;100.00;101231.25;10322089;28;20045;-74
2022/10/07 19:07:50;;;;;;;8.80;5.97;;;;;;;13.37;100.00;101237.81;10298616;28;20100;-74
2022/10/07 19:18:11;;;;;;;10.18;4.70;;;;;;;12.96;97.17;101147.00;10301679;28;20053;-74
2022/10/07 19:23:12;;;;;;;6.32;5.30;;;;;;;13.30;96.45;101201.28;10310867;28;20376;-74
2022/10/07 19:28:13;;;;;;;12.20;4.78;;;;;;;13.16;95.87;101189.38;10291215;28;20058;-75
2022/10/07 19:33:14;;;;;;;8.82;5.30;;;;;;;13.49;94.42;101230.34;10289832;28;20043;-75
2022/10/07 19:38:15;;;;;;;7.90;5.03;;;;;;;13.32;93.15;101196.63;10289938;28;20130;-76
2022/10/07 19:43:16;;;;;;;8.55;4.80;;;;;;;13.54;91.91;101232.50;10290651;28;20134;-76
2022/10/07 19:48:16;;;;;;;9.02;5.32;;;;;;;13.28;91.09;101189.94;10290258;28;20039;-74
2022/10/07 19:53:17;;;;;;;7.30;5.00;;;;;;;13.19;91.05;101184.56;10290958;28;20051;-73
2022/10/07 19:58:18;;;;;;;6.53;4.95;;;;;;;13.45;90.87;101235.16;10290274;28;20035;-73
2022/10/07 20:03:19;;;;;;;11.13;5.53;;;;;;;13.42;90.54;101226.66;10290881;28;20047;-74
2022/10/07 20:08:20;;;;;;;9.52;5.15;;;;;;;13.39;89.75;101224.31;10302680;28;20478;-76
2022/10/07 20:13:21;;;;;;;9.07;5.28;;;;;;;13.28;89.40;101205.94;10322460;28;20050;-74
2022/10/07 20:18:22;;;;;;;7.82;5.10;;;;;;;13.20;89.31;101209.41;10327906;28;20038;-76
2022/10/07 20:23:23;;;;;;;6.72;5.15;;;;;;;13.17;89.01;101194.56;10327548;28;20039;-76
2022/10/07 20:28:24;;;;;;;7.07;4.50;;;;;;;12.40;87.83;101067.72;10321703;28;20038;-77
2022/10/07 20:33:24;;;;;;;5.60;4.28;;;;;;;13.27;87.26;101209.63;10295268;28;20145;-75
2022/10/07 20:38:25;;;;;;;9.23;4.70;;;;;;;13.19;86.73;101189.91;10295021;28;20525;-75
2022/10/07 20:43:26;;;;;;;8.88;4.43;;;;;;;13.19;86.19;101207.72;10296165;28;20035;-73
2022/10/07 20:48:28;;;;;;;6.22;4.15;;;;;;;12.60;85.44;101111.78;10306942;28;20050;-73
2022/10/07 20:53:29;;;;;;;6.22;4.20;;;;;;;12.86;85.60;101161.47;10297052;28;20126;-73
2022/10/07 20:58:31;;;;;;;8.10;4.30;;;;;;;12.94;85.16;101178.34;10297319;28;20610;-73
2022/10/07 21:03:33;;;;;;;5.10;3.00;;;;;;;12.53;84.75;101105.41;10296446;28;20034;-73
2022/10/07 21:08:33;;;;;;;8.43;3.13;;;;;;;13.03;83.62;101169.34;10295846;28;20066;-73
2022/10/07 21:13:34;;;;;;;6.70;3.00;;;;;;;13.11;82.48;101173.03;10296190;28;20054;-74
2022/10/07 21:18:37;;;;;;;4.22;2.60;;;;;;;13.11;82.14;101160.53;10296682;28;20066;-75
2022/10/07 21:23:38;;;;;;;4.97;2.88;;;;;;;12.69;81.50;101085.97;10295697;28;20074;-74
2022/10/07 21:28:39;;;;;;;5.22;2.78;;;;;;;13.18;81.70;101166.88;10295031;28;20039;-73
2022/10/07 21:33:40;;;;;;;6.22;3.63;;;;;;;12.67;81.43;101080.78;10294832;28;20046;-73
2022/10/07 21:38:42;;;;;;;3.63;2.45;;;;;;;12.94;80.59;101129.50;10294554;28;20043;-74
2022/10/07 21:43:49;;;;;;;5.78;2.50;;;;;;;13.15;79.79;101169.88;10295191;28;20043;-75
2022/10/07 21:48:53;;;;;;;5.38;3.00;;;;;;;13.15;80.80;101201.88;10296542;28;20038;-76
2022/10/07 21:53:58;;;;;;;9.60;3.22;;;;;;;13.00;81.34;101188.34;10303130;28;20062;-75
2022/10/07 21:59:00;;;;;;;4.07;3.20;;;;;;;12.74;81.56;101153.81;10293862;28;20046;-76
2022/10/07 22:04:02;;;;;;;10.63;3.90;;;;;;;12.84;82.46;101176.81;10294305;28;20051;-76
2022/10/07 22:09:03;;;;;;;5.63;3.33;;;;;;;12.30;82.92;101102.50;10293876;28;20063;-74
2022/10/07 22:14:04;;;;;;;6.57;3.80;;;;;;;12.66;83.77;101175.09;10293120;28;20534;-73
2022/10/07 22:19:05;;;;;;;7.15;4.00;;;;;;;12.16;84.58;101106.59;10293530;28;20083;-73
2022/10/07 22:24:07;;;;;;;6.50;3.60;;;;;;;12.60;85.35;101186.41;10294541;28;20510;-75
2022/10/07 22:29:09;;;;;;;8.65;4.07;;;;;;;12.56;85.51;101198.34;10292724;28;20034;-73
2022/10/07 22:39:30;;;;;;;8.45;4.07;;;;;;;12.39;86.79;101192.13;10292763;28;20125;-75
2022/10/07 22:44:31;;;;;;;6.15;3.95;;;;;;;11.86;87.55;101108.78;10292742;28;20073;-75
2022/10/07 22:49:32;;;;;;;6.38;4.00;;;;;;;12.32;87.77;101191.09;10293103;28;20089;-75
2022/10/07 22:54:32;;;;;;;6.90;4.18;;;;;;;12.29;88.26;101200.25;10293032;28;20408;-75
2022/10/07 22:59:33;;;;;;;5.88;3.78;;;;;;;11.93;89.04;101127.63;10290994;28;20042;-73
2022/10/07 23:04:34;;;;;;;8.40;5.18;;;;;;;12.21;89.51;101178.06;10292052;28;20043;-73
2022/10/07 23:09:35;;;;;;;8.15;4.88;;;;;;;12.09;89.45;101162.34;10291931;28;20102;-74
2022/10/07 23:14:36;;;;;;;7.55;4.25;;;;;;;11.17;89.81;101021.81;10291418;28;20054;-73
2022/10/07 23:19:40;;;;;;;6.10;4.35;;;;;;;12.07;90.50;101174.97;10292507;28;20045;-74
2022/10/07 23:24:41;;;;;;;9.23;4.60;;;;;;;12.03;91.54;101178.94;10291285;28;20550;-74